aviador You're here:

LFLX Decoded Metar

CHATEAUROUX in FRANCE
Report Time2017-09-20 16:00:00
UTC Time2017-09-20 16:25:55
Flight Rules vfr VFR
Wind070° at 06 kt
W.Decomp.*RWY 03: 4.6 kt HW 3.9 kt RCW
W.Rank070° ranks 7
Current wind is above 070° avg. (5.6)
Visibility9999 m
Phenomena:N/A
Clouds:Broken 049 Hf
Expected CloudBase > 4,400 ft AGL from Temp-Dew spread
Ceiling4,900 ft
Temp19°C (ISA +5)
Dew Point08°C (49% RH)
AAT16.4°C
QNH1021 hPa
Density Alt981 ft
Elevation515 ft
Report Wrong Elevation
Raw Report
LFLX 201600Z AUTO 07006KT 040V100 9999 BKN049 19/08 Q1021
NOSIG=

Extra information for LFLX:More info

Metar Taf Metar & Taf Last 4 Metars F.Rules Stats Wind Profile Meteogram Temp Stats Airport Information Weather charts Add Link Nearby VenuesMetar ALERT Operation Metar Decoded Social comments